sensor_id;sensor_type;location;lat;lon;timestamp;P1;durP1;ratioP1;P2;durP2;ratioP2
22250;SDS011;59348;52.158;5.588;2022-12-10T00:00:10;68.25;;;32.75;;
22250;SDS011;59348;52.158;5.588;2022-12-10T00:02:40;69.63;;;32.40;;
22250;SDS011;59348;52.158;5.588;2022-12-10T00:05:10;70.63;;;32.83;;
22250;SDS011;59348;52.158;5.588;2022-12-10T00:07:37;70.05;;;32.28;;
22250;SDS011;59348;52.158;5.588;2022-12-10T00:10:06;68.80;;;33.15;;
22250;SDS011;59348;52.158;5.588;2022-12-10T00:12:33;69.65;;;32.70;;
22250;SDS011;59348;52.158;5.588;2022-12-10T00:15:01;71.30;;;33.35;;
22250;SDS011;59348;52.158;5.588;2022-12-10T00:17:29;68.50;;;33.22;;
22250;SDS011;59348;52.158;5.588;2022-12-10T00:19:56;70.28;;;34.03;;
22250;SDS011;59348;52.158;5.588;2022-12-10T00:22:25;74.53;;;34.97;;
22250;SDS011;59348;52.158;5.588;2022-12-10T00:24:52;70.05;;;31.95;;
22250;SDS011;59348;52.158;5.588;2022-12-10T00:27:22;73.97;;;33.65;;
22250;SDS011;59348;52.158;5.588;2022-12-10T00:29:51;74.15;;;33.40;;
22250;SDS011;59348;52.158;5.588;2022-12-10T00:32:18;74.20;;;33.05;;
22250;SDS011;59348;52.158;5.588;2022-12-10T00:34:46;75.18;;;33.85;;
22250;SDS011;59348;52.158;5.588;2022-12-10T00:37:14;72.47;;;33.20;;
22250;SDS011;59348;52.158;5.588;2022-12-10T00:39:44;72.13;;;33.88;;
22250;SDS011;59348;52.158;5.588;2022-12-10T00:42:12;69.60;;;33.03;;
22250;SDS011;59348;52.158;5.588;2022-12-10T00:44:40;76.25;;;34.40;;
22250;SDS011;59348;52.158;5.588;2022-12-10T00:47:10;75.95;;;33.58;;
22250;SDS011;59348;52.158;5.588;2022-12-10T00:49:38;75.03;;;32.88;;
22250;SDS011;59348;52.158;5.588;2022-12-10T00:52:06;71.00;;;33.25;;
22250;SDS011;59348;52.158;5.588;2022-12-10T00:54:35;75.10;;;33.97;;
22250;SDS011;59348;52.158;5.588;2022-12-10T00:57:05;78.68;;;35.28;;
22250;SDS011;59348;52.158;5.588;2022-12-10T00:59:32;75.30;;;32.83;;
22250;SDS011;59348;52.158;5.588;2022-12-10T01:02:00;77.47;;;34.10;;
22250;SDS011;59348;52.158;5.588;2022-12-10T01:04:28;68.75;;;33.22;;
22250;SDS011;59348;52.158;5.588;2022-12-10T01:06:56;74.47;;;33.67;;
22250;SDS011;59348;52.158;5.588;2022-12-10T01:09:25;77.18;;;34.78;;
22250;SDS011;59348;52.158;5.588;2022-12-10T01:11:53;74.25;;;35.03;;
22250;SDS011;59348;52.158;5.588;2022-12-10T01:14:23;74.20;;;34.25;;
22250;SDS011;59348;52.158;5.588;2022-12-10T01:16:53;64.75;;;33.75;;
22250;SDS011;59348;52.158;5.588;2022-12-10T01:19:21;72.57;;;33.08;;
22250;SDS011;59348;52.158;5.588;2022-12-10T01:21:49;70.80;;;32.78;;
22250;SDS011;59348;52.158;5.588;2022-12-10T01:24:17;75.95;;;33.75;;
22250;SDS011;59348;52.158;5.588;2022-12-10T01:26:46;68.53;;;32.95;;
22250;SDS011;59348;52.158;5.588;2022-12-10T01:29:14;74.32;;;32.67;;
22250;SDS011;59348;52.158;5.588;2022-12-10T01:31:44;67.63;;;32.42;;
22250;SDS011;59348;52.158;5.588;2022-12-10T01:34:13;67.68;;;32.63;;
22250;SDS011;59348;52.158;5.588;2022-12-10T01:36:42;66.60;;;31.85;;
22250;SDS011;59348;52.158;5.588;2022-12-10T01:39:10;63.35;;;31.40;;
22250;SDS011;59348;52.158;5.588;2022-12-10T01:41:39;73.35;;;33.28;;
22250;SDS011;59348;52.158;5.588;2022-12-10T01:46:52;67.95;;;32.38;;
22250;SDS011;59348;52.158;5.588;2022-12-10T01:49:20;78.80;;;33.55;;
22250;SDS011;59348;52.158;5.588;2022-12-10T01:51:50;74.90;;;34.13;;
22250;SDS011;59348;52.158;5.588;2022-12-10T01:54:19;75.85;;;34.88;;
22250;SDS011;59348;52.158;5.588;2022-12-10T01:56:49;77.80;;;34.67;;
22250;SDS011;59348;52.158;5.588;2022-12-10T01:59:19;75.25;;;33.33;;
22250;SDS011;59348;52.158;5.588;2022-12-10T02:01:53;76.47;;;35.42;;
22250;SDS011;59348;52.158;5.588;2022-12-10T02:04:25;73.65;;;33.22;;
22250;SDS011;59348;52.158;5.588;2022-12-10T02:06:57;74.68;;;33.75;;
22250;SDS011;59348;52.158;5.588;2022-12-10T02:09:27;70.57;;;32.72;;
22250;SDS011;59348;52.158;5.588;2022-12-10T02:11:59;76.65;;;35.10;;
22250;SDS011;59348;52.158;5.588;2022-12-10T02:14:30;79.97;;;35.25;;
22250;SDS011;59348;52.158;5.588;2022-12-10T02:17:05;78.97;;;36.22;;
22250;SDS011;59348;52.158;5.588;2022-12-10T02:19:39;80.40;;;36.55;;
22250;SDS011;59348;52.158;5.588;2022-12-10T02:22:10;79.65;;;35.95;;
22250;SDS011;59348;52.158;5.588;2022-12-10T02:24:39;85.68;;;38.28;;
22250;SDS011;59348;52.158;5.588;2022-12-10T02:27:10;86.55;;;37.75;;
22250;SDS011;59348;52.158;5.588;2022-12-10T02:29:40;82.43;;;36.70;;
22250;SDS011;59348;52.158;5.588;2022-12-10T02:32:08;86.20;;;37.38;;
22250;SDS011;59348;52.158;5.588;2022-12-10T02:34:39;85.38;;;37.88;;
22250;SDS011;59348;52.158;5.588;2022-12-10T02:37:08;95.70;;;38.97;;
22250;SDS011;59348;52.158;5.588;2022-12-10T02:39:40;89.50;;;37.88;;
22250;SDS011;59348;52.158;5.588;2022-12-10T02:42:09;87.85;;;37.75;;
22250;SDS011;59348;52.158;5.588;2022-12-10T02:44:41;95.63;;;38.45;;
22250;SDS011;59348;52.158;5.588;2022-12-10T02:47:10;96.28;;;39.40;;
22250;SDS011;59348;52.158;5.588;2022-12-10T02:49:38;101.65;;;38.10;;
22250;SDS011;59348;52.158;5.588;2022-12-10T02:52:08;92.95;;;39.35;;
22250;SDS011;59348;52.158;5.588;2022-12-10T02:54:38;97.32;;;38.72;;
22250;SDS011;59348;52.158;5.588;2022-12-10T02:59:57;96.70;;;37.90;;
22250;SDS011;59348;52.158;5.588;2022-12-10T03:02:29;104.35;;;40.15;;
22250;SDS011;59348;52.158;5.588;2022-12-10T03:04:59;101.47;;;40.08;;
22250;SDS011;59348;52.158;5.588;2022-12-10T03:07:31;108.13;;;41.42;;
22250;SDS011;59348;52.158;5.588;2022-12-10T03:10:02;102.43;;;42.53;;
22250;SDS011;59348;52.158;5.588;2022-12-10T03:12:31;107.15;;;42.45;;
22250;SDS011;59348;52.158;5.588;2022-12-10T03:15:03;123.20;;;39.42;;
22250;SDS011;59348;52.158;5.588;2022-12-10T03:17:33;143.10;;;39.50;;
22250;SDS011;59348;52.158;5.588;2022-12-10T03:20:01;239.73;;;39.60;;
22250;SDS011;59348;52.158;5.588;2022-12-10T03:22:29;136.27;;;36.80;;
22250;SDS011;59348;52.158;5.588;2022-12-10T03:24:59;145.48;;;38.55;;
22250;SDS011;59348;52.158;5.588;2022-12-10T03:27:28;132.68;;;37.20;;
22250;SDS011;59348;52.158;5.588;2022-12-10T03:29:56;232.45;;;38.88;;
22250;SDS011;59348;52.158;5.588;2022-12-10T03:32:26;211.73;;;37.60;;
22250;SDS011;59348;52.158;5.588;2022-12-10T03:34:56;159.57;;;37.72;;
22250;SDS011;59348;52.158;5.588;2022-12-10T03:37:26;217.05;;;39.00;;
22250;SDS011;59348;52.158;5.588;2022-12-10T03:39:55;142.55;;;39.13;;
22250;SDS011;59348;52.158;5.588;2022-12-10T03:42:23;127.47;;;38.38;;
22250;SDS011;59348;52.158;5.588;2022-12-10T03:44:51;157.88;;;38.50;;
22250;SDS011;59348;52.158;5.588;2022-12-10T03:47:19;209.82;;;36.67;;
22250;SDS011;59348;52.158;5.588;2022-12-10T03:49:48;191.98;;;38.45;;
22250;SDS011;59348;52.158;5.588;2022-12-10T03:52:16;188.23;;;38.28;;
22250;SDS011;59348;52.158;5.588;2022-12-10T03:54:46;133.75;;;38.08;;
22250;SDS011;59348;52.158;5.588;2022-12-10T03:57:14;204.70;;;39.13;;
22250;SDS011;59348;52.158;5.588;2022-12-10T03:59:43;166.30;;;37.92;;
22250;SDS011;59348;52.158;5.588;2022-12-10T04:02:12;227.57;;;38.10;;
22250;SDS011;59348;52.158;5.588;2022-12-10T04:04:42;175.77;;;36.33;;
22250;SDS011;59348;52.158;5.588;2022-12-10T04:07:13;153.52;;;35.72;;
22250;SDS011;59348;52.158;5.588;2022-12-10T04:09:40;172.73;;;36.28;;
22250;SDS011;59348;52.158;5.588;2022-12-10T04:12:08;289.60;;;37.80;;
22250;SDS011;59348;52.158;5.588;2022-12-10T04:14:37;190.90;;;37.03;;
22250;SDS011;59348;52.158;5.588;2022-12-10T04:17:19;214.77;;;37.40;;
22250;SDS011;59348;52.158;5.588;2022-12-10T04:19:47;182.43;;;35.90;;
22250;SDS011;59348;52.158;5.588;2022-12-10T04:22:16;186.68;;;38.65;;
22250;SDS011;59348;52.158;5.588;2022-12-10T04:24:57;157.98;;;35.45;;
22250;SDS011;59348;52.158;5.588;2022-12-10T04:27:38;112.57;;;34.92;;
22250;SDS011;59348;52.158;5.588;2022-12-10T04:30:07;103.03;;;34.78;;
22250;SDS011;59348;52.158;5.588;2022-12-10T04:32:36;97.60;;;35.13;;
22250;SDS011;59348;52.158;5.588;2022-12-10T04:35:05;138.50;;;36.83;;
22250;SDS011;59348;52.158;5.588;2022-12-10T04:37:36;106.78;;;34.45;;
22250;SDS011;59348;52.158;5.588;2022-12-10T04:40:05;115.20;;;37.20;;
22250;SDS011;59348;52.158;5.588;2022-12-10T04:42:33;160.20;;;38.17;;
22250;SDS011;59348;52.158;5.588;2022-12-10T04:45:01;186.98;;;38.80;;
22250;SDS011;59348;52.158;5.588;2022-12-10T04:47:29;160.93;;;39.22;;
22250;SDS011;59348;52.158;5.588;2022-12-10T04:49:58;232.40;;;37.58;;
22250;SDS011;59348;52.158;5.588;2022-12-10T04:52:27;154.13;;;37.33;;
22250;SDS011;59348;52.158;5.588;2022-12-10T04:54:57;170.07;;;39.22;;
22250;SDS011;59348;52.158;5.588;2022-12-10T04:57:25;253.85;;;40.08;;
22250;SDS011;59348;52.158;5.588;2022-12-10T04:59:52;180.00;;;37.72;;
22250;SDS011;59348;52.158;5.588;2022-12-10T05:02:20;195.82;;;36.00;;
22250;SDS011;59348;52.158;5.588;2022-12-10T05:04:48;145.30;;;36.03;;
22250;SDS011;59348;52.158;5.588;2022-12-10T05:07:16;186.40;;;35.25;;
22250;SDS011;59348;52.158;5.588;2022-12-10T05:09:43;174.82;;;35.10;;
22250;SDS011;59348;52.158;5.588;2022-12-10T05:12:12;191.20;;;36.08;;
22250;SDS011;59348;52.158;5.588;2022-12-10T05:14:39;165.32;;;37.95;;
22250;SDS011;59348;52.158;5.588;2022-12-10T05:17:07;120.72;;;37.92;;
22250;SDS011;59348;52.158;5.588;2022-12-10T05:19:35;211.15;;;36.10;;
22250;SDS011;59348;52.158;5.588;2022-12-10T05:22:03;136.73;;;36.97;;
22250;SDS011;59348;52.158;5.588;2022-12-10T05:24:45;132.75;;;36.10;;
22250;SDS011;59348;52.158;5.588;2022-12-10T05:27:15;159.63;;;37.55;;
22250;SDS011;59348;52.158;5.588;2022-12-10T05:29:43;101.20;;;36.22;;
22250;SDS011;59348;52.158;5.588;2022-12-10T05:32:11;145.10;;;37.88;;
22250;SDS011;59348;52.158;5.588;2022-12-10T05:34:39;217.30;;;39.70;;
22250;SDS011;59348;52.158;5.588;2022-12-10T05:37:08;209.13;;;39.13;;
22250;SDS011;59348;52.158;5.588;2022-12-10T05:42:04;187.35;;;38.45;;
22250;SDS011;59348;52.158;5.588;2022-12-10T05:44:34;200.52;;;37.50;;
22250;SDS011;59348;52.158;5.588;2022-12-10T05:47:01;203.18;;;38.85;;
22250;SDS011;59348;52.158;5.588;2022-12-10T05:49:30;168.57;;;37.30;;
22250;SDS011;59348;52.158;5.588;2022-12-10T05:51:58;266.05;;;38.92;;
22250;SDS011;59348;52.158;5.588;2022-12-10T05:54:26;184.05;;;38.20;;
22250;SDS011;59348;52.158;5.588;2022-12-10T05:56:54;180.38;;;38.03;;
22250;SDS011;59348;52.158;5.588;2022-12-10T05:59:23;205.38;;;39.33;;
22250;SDS011;59348;52.158;5.588;2022-12-10T06:01:53;162.07;;;38.15;;
22250;SDS011;59348;52.158;5.588;2022-12-10T06:04:21;213.15;;;36.00;;
22250;SDS011;59348;52.158;5.588;2022-12-10T06:06:48;205.30;;;39.25;;
22250;SDS011;59348;52.158;5.588;2022-12-10T06:09:15;171.07;;;38.92;;
22250;SDS011;59348;52.158;5.588;2022-12-10T06:11:43;184.75;;;39.78;;
22250;SDS011;59348;52.158;5.588;2022-12-10T06:14:10;237.90;;;40.95;;
22250;SDS011;59348;52.158;5.588;2022-12-10T06:16:38;140.60;;;39.90;;
22250;SDS011;59348;52.158;5.588;2022-12-10T06:19:08;176.18;;;41.05;;
22250;SDS011;59348;52.158;5.588;2022-12-10T06:21:36;191.13;;;41.90;;
22250;SDS011;59348;52.158;5.588;2022-12-10T06:24:04;201.50;;;41.75;;
22250;SDS011;59348;52.158;5.588;2022-12-10T06:26:31;151.73;;;41.50;;
22250;SDS011;59348;52.158;5.588;2022-12-10T06:29:00;192.00;;;40.30;;
22250;SDS011;59348;52.158;5.588;2022-12-10T06:31:29;208.88;;;44.72;;
22250;SDS011;59348;52.158;5.588;2022-12-10T06:33:57;230.00;;;44.55;;
22250;SDS011;59348;52.158;5.588;2022-12-10T06:36:25;203.45;;;45.58;;
22250;SDS011;59348;52.158;5.588;2022-12-10T06:38:53;211.63;;;45.53;;
22250;SDS011;59348;52.158;5.588;2022-12-10T06:41:20;188.65;;;42.60;;
22250;SDS011;59348;52.158;5.588;2022-12-10T06:43:49;192.50;;;43.17;;
22250;SDS011;59348;52.158;5.588;2022-12-10T06:46:18;170.90;;;40.08;;
22250;SDS011;59348;52.158;5.588;2022-12-10T06:48:46;176.90;;;42.40;;
22250;SDS011;59348;52.158;5.588;2022-12-10T06:51:15;204.30;;;43.10;;
22250;SDS011;59348;52.158;5.588;2022-12-10T06:53:45;199.68;;;42.88;;
22250;SDS011;59348;52.158;5.588;2022-12-10T06:56:14;190.40;;;43.35;;
22250;SDS011;59348;52.158;5.588;2022-12-10T06:58:42;202.38;;;42.25;;
22250;SDS011;59348;52.158;5.588;2022-12-10T07:01:10;197.07;;;42.53;;
22250;SDS011;59348;52.158;5.588;2022-12-10T07:03:38;172.10;;;41.58;;
22250;SDS011;59348;52.158;5.588;2022-12-10T07:06:06;175.05;;;42.13;;
22250;SDS011;59348;52.158;5.588;2022-12-10T07:08:34;197.63;;;43.20;;
22250;SDS011;59348;52.158;5.588;2022-12-10T07:11:04;179.35;;;42.65;;
22250;SDS011;59348;52.158;5.588;2022-12-10T07:13:31;152.15;;;41.60;;
22250;SDS011;59348;52.158;5.588;2022-12-10T07:15:59;172.02;;;41.10;;
22250;SDS011;59348;52.158;5.588;2022-12-10T07:18:26;160.48;;;39.58;;
22250;SDS011;59348;52.158;5.588;2022-12-10T07:20:54;182.77;;;40.95;;
22250;SDS011;59348;52.158;5.588;2022-12-10T07:23:21;220.98;;;41.90;;
22250;SDS011;59348;52.158;5.588;2022-12-10T07:25:49;170.38;;;41.17;;
22250;SDS011;59348;52.158;5.588;2022-12-10T07:28:18;158.77;;;42.75;;
22250;SDS011;59348;52.158;5.588;2022-12-10T07:30:45;173.15;;;42.20;;
22250;SDS011;59348;52.158;5.588;2022-12-10T07:33:13;183.85;;;42.17;;
22250;SDS011;59348;52.158;5.588;2022-12-10T07:35:40;165.63;;;41.95;;
22250;SDS011;59348;52.158;5.588;2022-12-10T07:38:09;152.27;;;40.85;;
22250;SDS011;59348;52.158;5.588;2022-12-10T07:40:36;133.35;;;41.60;;
22250;SDS011;59348;52.158;5.588;2022-12-10T07:43:04;166.07;;;41.60;;
22250;SDS011;59348;52.158;5.588;2022-12-10T07:45:33;146.10;;;40.38;;
22250;SDS011;59348;52.158;5.588;2022-12-10T07:48:00;157.35;;;41.50;;
22250;SDS011;59348;52.158;5.588;2022-12-10T07:50:28;146.27;;;41.10;;
22250;SDS011;59348;52.158;5.588;2022-12-10T07:52:55;134.25;;;41.28;;
22250;SDS011;59348;52.158;5.588;2022-12-10T07:55:23;142.50;;;41.00;;
22250;SDS011;59348;52.158;5.588;2022-12-10T07:57:50;160.95;;;42.75;;
22250;SDS011;59348;52.158;5.588;2022-12-10T08:00:18;171.80;;;41.90;;
22250;SDS011;59348;52.158;5.588;2022-12-10T08:02:47;147.82;;;41.15;;
22250;SDS011;59348;52.158;5.588;2022-12-10T08:05:15;145.73;;;41.30;;
22250;SDS011;59348;52.158;5.588;2022-12-10T08:07:43;140.05;;;41.88;;
22250;SDS011;59348;52.158;5.588;2022-12-10T08:10:11;166.70;;;41.47;;
22250;SDS011;59348;52.158;5.588;2022-12-10T08:12:38;138.77;;;41.55;;
22250;SDS011;59348;52.158;5.588;2022-12-10T08:15:06;153.98;;;44.38;;
22250;SDS011;59348;52.158;5.588;2022-12-10T08:17:34;163.25;;;43.20;;
22250;SDS011;59348;52.158;5.588;2022-12-10T08:20:03;137.50;;;41.40;;
22250;SDS011;59348;52.158;5.588;2022-12-10T08:22:31;134.52;;;43.55;;
22250;SDS011;59348;52.158;5.588;2022-12-10T08:25:00;135.55;;;40.08;;
22250;SDS011;59348;52.158;5.588;2022-12-10T08:27:28;141.15;;;41.30;;
22250;SDS011;59348;52.158;5.588;2022-12-10T08:29:55;148.25;;;41.08;;
22250;SDS011;59348;52.158;5.588;2022-12-10T08:32:22;151.80;;;40.53;;
22250;SDS011;59348;52.158;5.588;2022-12-10T08:34:50;170.40;;;42.67;;
22250;SDS011;59348;52.158;5.588;2022-12-10T08:37:19;180.20;;;45.17;;
22250;SDS011;59348;52.158;5.588;2022-12-10T08:39:47;150.80;;;41.85;;
22250;SDS011;59348;52.158;5.588;2022-12-10T08:42:15;164.20;;;43.22;;
22250;SDS011;59348;52.158;5.588;2022-12-10T08:44:42;211.35;;;48.67;;
22250;SDS011;59348;52.158;5.588;2022-12-10T08:47:10;262.63;;;53.72;;
22250;SDS011;59348;52.158;5.588;2022-12-10T08:49:39;243.57;;;51.33;;
22250;SDS011;59348;52.158;5.588;2022-12-10T08:52:06;220.00;;;49.65;;
22250;SDS011;59348;52.158;5.588;2022-12-10T08:54:35;212.32;;;47.38;;
22250;SDS011;59348;52.158;5.588;2022-12-10T08:57:02;183.98;;;47.28;;
22250;SDS011;59348;52.158;5.588;2022-12-10T08:59:30;213.57;;;48.10;;
22250;SDS011;59348;52.158;5.588;2022-12-10T09:01:57;262.10;;;48.25;;
22250;SDS011;59348;52.158;5.588;2022-12-10T09:04:26;258.75;;;52.15;;
22250;SDS011;59348;52.158;5.588;2022-12-10T09:06:53;208.63;;;48.13;;
22250;SDS011;59348;52.158;5.588;2022-12-10T09:09:21;231.60;;;49.08;;
22250;SDS011;59348;52.158;5.588;2022-12-10T09:11:50;209.95;;;47.08;;
22250;SDS011;59348;52.158;5.588;2022-12-10T09:14:17;223.52;;;49.38;;
22250;SDS011;59348;52.158;5.588;2022-12-10T09:16:45;222.27;;;47.17;;
22250;SDS011;59348;52.158;5.588;2022-12-10T09:19:13;159.32;;;41.88;;
22250;SDS011;59348;52.158;5.588;2022-12-10T09:21:40;202.48;;;45.78;;
22250;SDS011;59348;52.158;5.588;2022-12-10T09:24:08;236.82;;;50.92;;
22250;SDS011;59348;52.158;5.588;2022-12-10T09:26:36;226.60;;;48.97;;
22250;SDS011;59348;52.158;5.588;2022-12-10T09:29:05;182.15;;;44.55;;
22250;SDS011;59348;52.158;5.588;2022-12-10T09:31:32;186.80;;;43.88;;
22250;SDS011;59348;52.158;5.588;2022-12-10T09:33:59;199.55;;;45.28;;
22250;SDS011;59348;52.158;5.588;2022-12-10T09:36:27;212.88;;;45.65;;
22250;SDS011;59348;52.158;5.588;2022-12-10T09:38:54;168.32;;;43.58;;
22250;SDS011;59348;52.158;5.588;2022-12-10T09:41:30;166.68;;;41.75;;
22250;SDS011;59348;52.158;5.588;2022-12-10T09:44:00;130.85;;;37.72;;
22250;SDS011;59348;52.158;5.588;2022-12-10T09:46:36;112.63;;;33.22;;
22250;SDS011;59348;52.158;5.588;2022-12-10T09:49:06;126.43;;;33.78;;
22250;SDS011;59348;52.158;5.588;2022-12-10T09:51:36;129.35;;;34.72;;
22250;SDS011;59348;52.158;5.588;2022-12-10T09:54:04;126.93;;;34.08;;
22250;SDS011;59348;52.158;5.588;2022-12-10T09:56:39;139.13;;;38.33;;
22250;SDS011;59348;52.158;5.588;2022-12-10T09:59:11;150.52;;;40.78;;
22250;SDS011;59348;52.158;5.588;2022-12-10T10:01:44;136.95;;;37.40;;
22250;SDS011;59348;52.158;5.588;2022-12-10T10:04:11;124.20;;;34.65;;
22250;SDS011;59348;52.158;5.588;2022-12-10T10:06:40;124.25;;;37.08;;
22250;SDS011;59348;52.158;5.588;2022-12-10T10:09:09;130.48;;;37.67;;
22250;SDS011;59348;52.158;5.588;2022-12-10T10:11:38;129.88;;;35.13;;
22250;SDS011;59348;52.158;5.588;2022-12-10T10:14:08;107.40;;;32.60;;
22250;SDS011;59348;52.158;5.588;2022-12-10T10:16:39;126.28;;;35.30;;
22250;SDS011;59348;52.158;5.588;2022-12-10T10:19:13;141.20;;;38.33;;
22250;SDS011;59348;52.158;5.588;2022-12-10T10:21:41;181.40;;;41.72;;
22250;SDS011;59348;52.158;5.588;2022-12-10T10:24:11;158.65;;;41.30;;
22250;SDS011;59348;52.158;5.588;2022-12-10T10:26:39;150.68;;;36.90;;
22250;SDS011;59348;52.158;5.588;2022-12-10T10:29:08;140.75;;;37.38;;
22250;SDS011;59348;52.158;5.588;2022-12-10T10:31:38;120.40;;;36.10;;
22250;SDS011;59348;52.158;5.588;2022-12-10T10:34:13;131.85;;;36.53;;
22250;SDS011;59348;52.158;5.588;2022-12-10T10:36:41;138.80;;;38.10;;
22250;SDS011;59348;52.158;5.588;2022-12-10T10:39:09;155.00;;;39.47;;
22250;SDS011;59348;52.158;5.588;2022-12-10T10:41:37;158.35;;;40.22;;
22250;SDS011;59348;52.158;5.588;2022-12-10T10:44:12;137.77;;;36.60;;
22250;SDS011;59348;52.158;5.588;2022-12-10T10:46:40;142.27;;;37.55;;
22250;SDS011;59348;52.158;5.588;2022-12-10T10:49:17;158.68;;;39.78;;
22250;SDS011;59348;52.158;5.588;2022-12-10T10:51:45;183.32;;;42.05;;
22250;SDS011;59348;52.158;5.588;2022-12-10T10:54:14;178.55;;;40.13;;
22250;SDS011;59348;52.158;5.588;2022-12-10T10:56:57;138.98;;;37.30;;
22250;SDS011;59348;52.158;5.588;2022-12-10T10:59:28;148.93;;;38.85;;
22250;SDS011;59348;52.158;5.588;2022-12-10T11:01:58;146.07;;;38.85;;
22250;SDS011;59348;52.158;5.588;2022-12-10T11:04:29;147.98;;;38.90;;
22250;SDS011;59348;52.158;5.588;2022-12-10T11:06:59;150.07;;;39.35;;
22250;SDS011;59348;52.158;5.588;2022-12-10T11:09:29;162.32;;;40.55;;
22250;SDS011;59348;52.158;5.588;2022-12-10T11:11:58;153.15;;;41.47;;
22250;SDS011;59348;52.158;5.588;2022-12-10T11:14:26;164.50;;;42.97;;
22250;SDS011;59348;52.158;5.588;2022-12-10T11:16:59;150.18;;;40.88;;
22250;SDS011;59348;52.158;5.588;2022-12-10T11:19:28;158.88;;;41.00;;
22250;SDS011;59348;52.158;5.588;2022-12-10T11:21:55;152.18;;;40.60;;
22250;SDS011;59348;52.158;5.588;2022-12-10T11:24:42;170.82;;;40.20;;
22250;SDS011;59348;52.158;5.588;2022-12-10T11:27:09;145.90;;;40.30;;
22250;SDS011;59348;52.158;5.588;2022-12-10T11:29:44;138.95;;;37.55;;
22250;SDS011;59348;52.158;5.588;2022-12-10T11:32:18;135.10;;;34.53;;
22250;SDS011;59348;52.158;5.588;2022-12-10T11:34:52;129.85;;;33.45;;
22250;SDS011;59348;52.158;5.588;2022-12-10T11:37:21;117.30;;;32.45;;
22250;SDS011;59348;52.158;5.588;2022-12-10T11:40:02;123.47;;;34.55;;
22250;SDS011;59348;52.158;5.588;2022-12-10T11:42:37;120.28;;;34.10;;
22250;SDS011;59348;52.158;5.588;2022-12-10T11:45:07;133.75;;;36.05;;
22250;SDS011;59348;52.158;5.588;2022-12-10T11:47:39;130.35;;;36.58;;
22250;SDS011;59348;52.158;5.588;2022-12-10T11:50:14;126.50;;;36.58;;
22250;SDS011;59348;52.158;5.588;2022-12-10T11:52:46;117.63;;;35.42;;
22250;SDS011;59348;52.158;5.588;2022-12-10T11:55:18;152.07;;;38.47;;
22250;SDS011;59348;52.158;5.588;2022-12-10T11:57:52;132.48;;;36.28;;
22250;SDS011;59348;52.158;5.588;2022-12-10T12:00:23;151.38;;;37.17;;
22250;SDS011;59348;52.158;5.588;2022-12-10T12:03:03;138.68;;;36.42;;
22250;SDS011;59348;52.158;5.588;2022-12-10T12:05:43;137.43;;;32.40;;
22250;SDS011;59348;52.158;5.588;2022-12-10T12:08:14;126.13;;;31.55;;
22250;SDS011;59348;52.158;5.588;2022-12-10T12:10:47;118.07;;;32.20;;
22250;SDS011;59348;52.158;5.588;2022-12-10T12:13:17;137.02;;;33.08;;
22250;SDS011;59348;52.158;5.588;2022-12-10T12:15:47;148.93;;;34.13;;
22250;SDS011;59348;52.158;5.588;2022-12-10T12:18:17;133.93;;;33.38;;
22250;SDS011;59348;52.158;5.588;2022-12-10T12:20:48;129.95;;;32.72;;
22250;SDS011;59348;52.158;5.588;2022-12-10T12:23:19;133.55;;;34.35;;
22250;SDS011;59348;52.158;5.588;2022-12-10T12:25:49;108.57;;;31.27;;
22250;SDS011;59348;52.158;5.588;2022-12-10T12:28:19;113.95;;;33.05;;
22250;SDS011;59348;52.158;5.588;2022-12-10T12:30:48;91.88;;;31.50;;
22250;SDS011;59348;52.158;5.588;2022-12-10T12:33:20;120.57;;;33.08;;
22250;SDS011;59348;52.158;5.588;2022-12-10T12:35:52;104.45;;;31.70;;
22250;SDS011;59348;52.158;5.588;2022-12-10T12:38:26;113.25;;;32.20;;
22250;SDS011;59348;52.158;5.588;2022-12-10T12:40:56;117.78;;;32.70;;
22250;SDS011;59348;52.158;5.588;2022-12-10T12:43:25;104.68;;;32.03;;
22250;SDS011;59348;52.158;5.588;2022-12-10T12:45:55;115.07;;;34.08;;
22250;SDS011;59348;52.158;5.588;2022-12-10T12:48:23;108.50;;;33.28;;
22250;SDS011;59348;52.158;5.588;2022-12-10T12:50:57;98.82;;;29.17;;
22250;SDS011;59348;52.158;5.588;2022-12-10T12:53:26;97.65;;;27.55;;
22250;SDS011;59348;52.158;5.588;2022-12-10T12:55:56;114.75;;;26.33;;
22250;SDS011;59348;52.158;5.588;2022-12-10T12:58:30;113.47;;;27.50;;
22250;SDS011;59348;52.158;5.588;2022-12-10T13:01:03;86.18;;;28.00;;
22250;SDS011;59348;52.158;5.588;2022-12-10T13:03:35;83.07;;;27.65;;
22250;SDS011;59348;52.158;5.588;2022-12-10T13:08:49;100.28;;;28.08;;
22250;SDS011;59348;52.158;5.588;2022-12-10T13:11:19;83.13;;;28.13;;
22250;SDS011;59348;52.158;5.588;2022-12-10T13:14:03;100.25;;;28.25;;
22250;SDS011;59348;52.158;5.588;2022-12-10T13:16:35;77.75;;;27.10;;
22250;SDS011;59348;52.158;5.588;2022-12-10T13:21:56;72.43;;;25.48;;
22250;SDS011;59348;52.158;5.588;2022-12-10T13:24:44;67.28;;;24.15;;
22250;SDS011;59348;52.158;5.588;2022-12-10T13:27:16;74.13;;;26.45;;
22250;SDS011;59348;52.158;5.588;2022-12-10T13:29:45;80.13;;;27.95;;
22250;SDS011;59348;52.158;5.588;2022-12-10T13:32:14;95.65;;;27.40;;
22250;SDS011;59348;52.158;5.588;2022-12-10T13:34:42;81.20;;;27.00;;
22250;SDS011;59348;52.158;5.588;2022-12-10T13:37:14;84.32;;;28.77;;
22250;SDS011;59348;52.158;5.588;2022-12-10T13:39:47;81.32;;;28.60;;
22250;SDS011;59348;52.158;5.588;2022-12-10T13:45:23;82.93;;;27.65;;
22250;SDS011;59348;52.158;5.588;2022-12-10T13:47:52;87.60;;;25.80;;
22250;SDS011;59348;52.158;5.588;2022-12-10T13:50:24;81.13;;;25.83;;
22250;SDS011;59348;52.158;5.588;2022-12-10T13:52:58;82.18;;;28.13;;
22250;SDS011;59348;52.158;5.588;2022-12-10T13:55:31;74.82;;;27.42;;
22250;SDS011;59348;52.158;5.588;2022-12-10T14:00:46;92.22;;;29.15;;
22250;SDS011;59348;52.158;5.588;2022-12-10T14:03:23;102.80;;;27.63;;
22250;SDS011;59348;52.158;5.588;2022-12-10T14:05:55;83.68;;;28.35;;
22250;SDS011;59348;52.158;5.588;2022-12-10T14:08:25;106.13;;;29.45;;
22250;SDS011;59348;52.158;5.588;2022-12-10T14:10:55;86.60;;;30.40;;
22250;SDS011;59348;52.158;5.588;2022-12-10T14:13:24;80.55;;;30.58;;
22250;SDS011;59348;52.158;5.588;2022-12-10T14:15:55;78.72;;;29.77;;
22250;SDS011;59348;52.158;5.588;2022-12-10T14:18:24;90.40;;;26.90;;
22250;SDS011;59348;52.158;5.588;2022-12-10T14:20:55;93.32;;;25.98;;
22250;SDS011;59348;52.158;5.588;2022-12-10T14:23:24;87.40;;;25.33;;
22250;SDS011;59348;52.158;5.588;2022-12-10T14:26:04;104.40;;;26.15;;
22250;SDS011;59348;52.158;5.588;2022-12-10T14:28:32;76.88;;;25.63;;
22250;SDS011;59348;52.158;5.588;2022-12-10T14:31:00;97.82;;;28.40;;
22250;SDS011;59348;52.158;5.588;2022-12-10T14:33:27;88.88;;;28.15;;
22250;SDS011;59348;52.158;5.588;2022-12-10T14:35:54;100.05;;;28.35;;
22250;SDS011;59348;52.158;5.588;2022-12-10T14:38:23;87.93;;;29.17;;
22250;SDS011;59348;52.158;5.588;2022-12-10T14:40:52;83.47;;;29.13;;
22250;SDS011;59348;52.158;5.588;2022-12-10T14:43:22;78.40;;;26.83;;
22250;SDS011;59348;52.158;5.588;2022-12-10T14:45:52;93.60;;;27.20;;